createdAt,value
2023-02-26T00:01:32.451Z,67.80
2023-02-26T00:04:02.927Z,68.10
2023-02-26T00:06:33.559Z,68.30
2023-02-26T00:09:01.044Z,68.20
2023-02-26T00:11:28.809Z,68.10
2023-02-26T00:13:56.527Z,68.90
2023-02-26T00:16:30.468Z,67.90
2023-02-26T00:19:00.401Z,68.00
2023-02-26T00:21:29.583Z,67.90
2023-02-26T00:23:58.281Z,68.10
2023-02-26T00:26:27.388Z,68.10
2023-02-26T00:28:55.514Z,68.20
2023-02-26T00:31:26.514Z,68.20
2023-02-26T00:33:55.585Z,68.40
2023-02-26T00:36:29.586Z,68.40
2023-02-26T00:39:15.334Z,68.50
2023-02-26T00:41:43.034Z,68.70
2023-02-26T00:44:10.627Z,68.70
2023-02-26T00:46:54.248Z,68.70
2023-02-26T00:49:44.965Z,68.50
2023-02-26T00:52:18.476Z,68.60
2023-02-26T00:54:45.695Z,68.70
2023-02-26T00:57:15.301Z,68.60
2023-02-26T00:59:43.958Z,68.60
2023-02-26T01:02:11.177Z,68.60
2023-02-26T01:04:40.249Z,68.40
2023-02-26T01:07:10.230Z,68.30
2023-02-26T01:09:38.409Z,68.10
2023-02-26T01:12:12.856Z,68.80
2023-02-26T01:14:41.700Z,68.00
2023-02-26T01:17:20.815Z,68.10
2023-02-26T01:19:54.393Z,68.00
2023-02-26T01:22:59.524Z,68.10
2023-02-26T01:25:38.416Z,68.10
2023-02-26T01:28:06.046Z,68.30
2023-02-26T01:30:34.044Z,68.40
2023-02-26T01:33:35.377Z,68.50
2023-02-26T01:36:23.717Z,68.40
2023-02-26T01:39:12.592Z,68.50
2023-02-26T01:41:45.323Z,68.50
2023-02-26T01:44:24.093Z,68.60
2023-02-26T01:47:00.319Z,68.90
2023-02-26T01:49:28.056Z,68.90
2023-02-26T01:52:00.326Z,68.90
2023-02-26T01:54:36.194Z,68.80
2023-02-26T01:57:06.847Z,68.80
2023-02-26T01:59:37.951Z,68.70
2023-02-26T02:02:08.177Z,68.70
2023-02-26T02:04:37.585Z,68.80
2023-02-26T02:07:06.600Z,68.80
2023-02-26T02:09:34.615Z,69.00
2023-02-26T02:12:26.998Z,68.90
2023-02-26T02:15:12.563Z,68.90
2023-02-26T02:18:19.978Z,68.90
2023-02-26T02:21:06.012Z,69.10
2023-02-26T02:24:03.970Z,69.10
2023-02-26T02:26:53.203Z,69.20
2023-02-26T02:30:07.846Z,69.40
2023-02-26T02:32:46.875Z,69.50
2023-02-26T02:35:46.130Z,69.50
2023-02-26T02:38:23.347Z,69.60
2023-02-26T02:40:57.314Z,69.80
2023-02-26T02:43:29.906Z,70.00
2023-02-26T02:46:08.813Z,70.10
2023-02-26T02:48:46.576Z,70.10
2023-02-26T02:51:23.147Z,70.10
2023-02-26T02:54:00.016Z,70.30
2023-02-26T02:56:48.894Z,70.40
2023-02-26T02:59:21.847Z,70.40
2023-02-26T03:01:54.191Z,70.30
2023-02-26T03:04:21.586Z,70.20
2023-02-26T03:06:50.009Z,70.20
2023-02-26T03:09:19.573Z,70.10
2023-02-26T03:11:46.816Z,70.00
2023-02-26T03:14:15.732Z,69.90
2023-02-26T03:16:55.588Z,69.90
2023-02-26T03:20:01.032Z,69.80
2023-02-26T03:22:56.511Z,69.70
2023-02-26T03:25:31.198Z,69.60
2023-02-26T03:28:07.570Z,69.60
2023-02-26T03:30:51.521Z,69.40
2023-02-26T03:33:43.088Z,69.10
2023-02-26T03:36:14.662Z,69.10
2023-02-26T03:39:05.082Z,69.30
2023-02-26T03:42:20.691Z,69.40
2023-02-26T03:45:02.700Z,69.30
2023-02-26T03:47:32.028Z,69.30
2023-02-26T03:50:32.114Z,69.40
2023-02-26T03:53:26.961Z,69.30
2023-02-26T03:56:31.274Z,69.30
2023-02-26T03:59:18.535Z,69.50
2023-02-26T04:01:58.648Z,69.40
2023-02-26T04:18:45.030Z,69.20
2023-02-26T04:21:18.760Z,69.30
2023-02-26T04:23:46.577Z,69.30
2023-02-26T04:26:14.752Z,69.30
2023-02-26T04:28:43.040Z,69.40
2023-02-26T04:31:10.807Z,69.50
2023-02-26T04:33:39.562Z,69.50
2023-02-26T04:36:07.392Z,69.50
2023-02-26T04:38:35.208Z,69.60
2023-02-26T04:41:03.078Z,69.50
2023-02-26T04:43:30.398Z,69.40
2023-02-26T04:46:20.722Z,69.40
2023-02-26T04:48:48.053Z,69.40
2023-02-26T04:51:15.511Z,69.40
2023-02-26T04:53:43.877Z,69.50
2023-02-26T04:56:11.306Z,69.50
2023-02-26T04:58:38.792Z,69.70
2023-02-26T05:01:10.676Z,69.70
2023-02-26T05:03:37.947Z,69.70
2023-02-26T05:06:05.578Z,69.80
2023-02-26T05:08:32.995Z,69.70
2023-02-26T05:11:00.436Z,69.60
2023-02-26T05:13:27.989Z,69.80
2023-02-26T05:15:55.452Z,69.80
2023-02-26T05:18:24.396Z,69.80
2023-02-26T05:20:56.471Z,69.80
2023-02-26T05:23:23.800Z,69.80
2023-02-26T05:25:51.574Z,69.90
2023-02-26T05:28:19.334Z,70.80
2023-02-26T05:30:46.776Z,70.20
2023-02-26T05:33:14.638Z,70.20
2023-02-26T05:35:42.123Z,70.20
2023-02-26T05:38:09.465Z,70.30
2023-02-26T05:40:36.983Z,70.30
2023-02-26T05:43:04.391Z,70.30
2023-02-26T05:45:32.200Z,70.40
2023-02-26T05:47:59.666Z,70.50
2023-02-26T05:50:27.254Z,70.60
2023-02-26T05:52:54.623Z,70.60
2023-02-26T05:55:23.218Z,70.70
2023-02-26T05:57:50.545Z,70.80
2023-02-26T06:00:18.345Z,70.90
2023-02-26T06:02:48.828Z,70.90
2023-02-26T06:05:16.195Z,71.10
2023-02-26T06:07:43.389Z,71.20
2023-02-26T06:10:12.122Z,71.30
2023-02-26T06:12:40.129Z,71.30
2023-02-26T06:15:08.532Z,71.20
2023-02-26T06:17:39.607Z,71.40
2023-02-26T06:20:08.879Z,71.50
2023-02-26T06:22:36.227Z,71.50
2023-02-26T06:25:03.745Z,71.50
2023-02-26T06:27:31.162Z,71.70
2023-02-26T06:29:58.405Z,71.80
2023-02-26T06:32:28.334Z,71.90
2023-02-26T06:34:56.859Z,71.80
2023-02-26T06:37:24.120Z,72.00
2023-02-26T06:39:51.724Z,72.40
2023-02-26T06:42:20.228Z,72.70
2023-02-26T06:44:47.594Z,72.80
2023-02-26T06:47:14.855Z,72.90
2023-02-26T06:49:42.307Z,72.80
2023-02-26T06:52:09.763Z,72.80
2023-02-26T06:54:36.961Z,72.50
2023-02-26T06:57:04.255Z,72.50
2023-02-26T06:59:31.522Z,71.90
2023-02-26T07:01:59.004Z,71.50
2023-02-26T07:04:26.234Z,71.20
2023-02-26T07:06:53.696Z,70.40
2023-02-26T07:09:21.091Z,69.70
2023-02-26T07:11:48.496Z,69.30
2023-02-26T07:14:16.045Z,68.80
2023-02-26T07:16:44.201Z,68.60
2023-02-26T07:19:11.521Z,68.40
2023-02-26T07:21:38.858Z,68.50
2023-02-26T07:24:06.900Z,68.00
2023-02-26T07:26:34.370Z,67.80
2023-02-26T07:29:01.805Z,67.80
2023-02-26T07:31:29.315Z,67.50
2023-02-26T07:33:56.872Z,67.60
2023-02-26T07:36:24.720Z,67.50
2023-02-26T07:38:52.227Z,67.40
2023-02-26T07:41:19.551Z,67.30
2023-02-26T07:43:47.036Z,67.40
2023-02-26T07:46:14.413Z,67.40
2023-02-26T07:48:41.793Z,67.50
2023-02-26T07:51:10.986Z,67.30
2023-02-26T07:53:38.387Z,67.40
2023-02-26T07:56:05.996Z,67.20
2023-02-26T07:58:33.552Z,67.20
2023-02-26T08:01:00.953Z,67.10
2023-02-26T08:03:28.566Z,66.90
2023-02-26T08:05:56.125Z,67.20
2023-02-26T08:08:23.485Z,67.10
2023-02-26T08:10:50.876Z,67.10
2023-02-26T08:13:18.865Z,67.10
2023-02-26T08:15:47.916Z,66.90
2023-02-26T08:18:15.362Z,67.00
2023-02-26T08:20:43.956Z,67.10
2023-02-26T08:23:11.715Z,66.90
2023-02-26T08:25:39.755Z,66.80
2023-02-26T08:28:07.314Z,66.50
2023-02-26T08:30:37.847Z,66.30
2023-02-26T08:33:05.628Z,66.50
2023-02-26T08:35:33.238Z,66.50
2023-02-26T08:38:00.689Z,66.40
2023-02-26T08:40:28.142Z,66.30
2023-02-26T08:42:55.573Z,66.30
2023-02-26T08:45:22.952Z,66.10
2023-02-26T08:47:56.776Z,66.10
2023-02-26T08:50:25.925Z,64.90
2023-02-26T08:52:53.232Z,64.50
2023-02-26T08:55:24.928Z,64.50
2023-02-26T08:57:52.339Z,64.10
2023-02-26T09:00:20.444Z,63.20
2023-02-26T09:02:47.876Z,63.30
2023-02-26T09:05:15.600Z,63.30
2023-02-26T09:07:43.847Z,63.50
2023-02-26T09:10:12.672Z,63.50
2023-02-26T09:12:40.415Z,63.50
2023-02-26T09:15:09.486Z,63.60
2023-02-26T09:17:37.470Z,63.80
2023-02-26T09:20:05.649Z,63.90
2023-02-26T09:22:32.974Z,63.90
2023-02-26T09:25:00.456Z,64.20
2023-02-26T09:27:27.738Z,64.00
2023-02-26T09:29:55.055Z,63.80
2023-02-26T09:32:22.367Z,63.30
2023-02-26T09:34:50.446Z,63.70
2023-02-26T09:37:18.941Z,63.70
2023-02-26T09:39:46.300Z,63.40
2023-02-26T09:42:19.575Z,63.00
2023-02-26T09:44:48.679Z,63.20
2023-02-26T09:47:31.388Z,63.30
2023-02-26T09:50:10.353Z,63.20
2023-02-26T09:52:55.671Z,62.70
2023-02-26T09:55:40.087Z,62.20
2023-02-26T09:58:19.061Z,61.50
2023-02-26T10:00:57.279Z,62.40
2023-02-26T10:03:37.455Z,62.30
2023-02-26T10:06:26.960Z,62.30
2023-02-26T10:09:06.937Z,61.70
2023-02-26T10:11:47.182Z,62.00
2023-02-26T10:14:55.059Z,61.60
2023-02-26T10:17:40.745Z,61.60
2023-02-26T10:20:17.045Z,62.00
2023-02-26T10:22:59.207Z,61.90
2023-02-26T10:25:44.742Z,61.10
2023-02-26T10:28:14.622Z,61.20
2023-02-26T10:31:05.000Z,61.10
2023-02-26T10:33:53.689Z,60.50
2023-02-26T10:36:26.195Z,60.80
2023-02-26T10:39:03.834Z,60.20
2023-02-26T10:41:35.062Z,60.50
2023-02-26T10:44:20.094Z,59.90
2023-02-26T10:46:53.777Z,60.40
2023-02-26T10:49:55.183Z,60.30
2023-02-26T10:52:27.987Z,59.30
2023-02-26T10:55:20.145Z,58.80
2023-02-26T10:57:57.713Z,59.10
2023-02-26T11:00:25.548Z,59.40
2023-02-26T11:02:55.078Z,59.50
2023-02-26T11:05:29.346Z,59.80
2023-02-26T11:08:26.131Z,59.40
2023-02-26T11:10:59.838Z,58.70
2023-02-26T11:13:29.647Z,58.90
2023-02-26T11:16:01.326Z,58.50
2023-02-26T11:18:40.247Z,58.90
2023-02-26T11:21:16.445Z,59.30
2023-02-26T11:23:45.780Z,59.20
2023-02-26T11:26:25.490Z,58.50
2023-02-26T11:28:55.956Z,58.30
2023-02-26T11:31:25.229Z,58.70
2023-02-26T11:33:59.109Z,59.10
2023-02-26T11:36:29.858Z,58.40
2023-02-26T11:39:26.458Z,58.10
2023-02-26T11:41:57.472Z,57.70
2023-02-26T11:44:30.718Z,58.00
2023-02-26T11:47:01.505Z,58.40
2023-02-26T11:49:29.227Z,58.50
2023-02-26T11:52:21.497Z,58.40
2023-02-26T11:54:51.714Z,58.50
2023-02-26T11:57:29.354Z,58.00
2023-02-26T11:59:59.530Z,57.60
2023-02-26T12:02:34.845Z,58.10
2023-02-26T12:05:06.943Z,58.40
2023-02-26T12:07:34.648Z,58.10
2023-02-26T12:10:01.954Z,57.90
2023-02-26T12:12:50.473Z,57.60
2023-02-26T12:15:23.484Z,57.70
2023-02-26T12:17:59.553Z,57.20
2023-02-26T12:20:51.353Z,57.10
2023-02-26T12:23:36.867Z,57.00
2023-02-26T12:26:22.220Z,56.70
2023-02-26T12:29:21.822Z,56.90
2023-02-26T12:31:58.340Z,57.30
2023-02-26T12:35:00.550Z,57.00
2023-02-26T12:37:46.797Z,56.50
2023-02-26T12:40:57.649Z,56.80
2023-02-26T12:43:41.205Z,57.50
2023-02-26T12:46:33.665Z,57.40
2023-02-26T12:49:06.738Z,57.30
2023-02-26T12:52:03.900Z,57.30
2023-02-26T12:54:43.482Z,57.50
2023-02-26T12:57:17.155Z,56.90
2023-02-26T13:00:17.161Z,56.70
2023-02-26T13:03:13.112Z,56.40
2023-02-26T13:06:06.626Z,56.50
2023-02-26T13:08:50.098Z,56.40
2023-02-26T13:11:44.528Z,56.80
2023-02-26T13:14:26.648Z,56.80
2023-02-26T13:17:03.694Z,56.30
2023-02-26T13:19:50.422Z,56.80
2023-02-26T13:22:23.333Z,56.70
2023-02-26T13:25:04.109Z,56.90
2023-02-26T13:27:36.113Z,56.70
2023-02-26T13:30:22.076Z,57.00
2023-02-26T13:32:52.467Z,56.70
2023-02-26T13:35:27.700Z,56.60
2023-02-26T13:37:57.705Z,57.00
2023-02-26T13:40:55.696Z,57.00
2023-02-26T13:43:50.048Z,56.80
2023-02-26T13:46:23.102Z,57.20
2023-02-26T13:49:16.717Z,56.90
2023-02-26T13:51:49.101Z,56.70
2023-02-26T13:54:17.128Z,56.70
2023-02-26T13:56:54.266Z,56.60
2023-02-26T13:59:31.316Z,56.00
2023-02-26T14:02:24.341Z,56.70
2023-02-26T14:04:59.327Z,56.50
2023-02-26T14:07:52.296Z,56.70
2023-02-26T14:10:44.389Z,57.20
2023-02-26T14:13:17.302Z,57.80
2023-02-26T14:16:13.710Z,58.00
2023-02-26T14:18:51.814Z,57.50
2023-02-26T14:21:28.312Z,57.50
2023-02-26T14:23:59.140Z,57.70
2023-02-26T14:26:31.811Z,57.70
2023-02-26T14:29:05.060Z,57.50
2023-02-26T14:31:55.626Z,57.70
2023-02-26T14:34:26.277Z,57.80
2023-02-26T14:37:02.494Z,58.30
2023-02-26T14:39:35.580Z,58.50
2023-02-26T14:42:11.505Z,58.00
2023-02-26T14:44:49.390Z,58.10
2023-02-26T14:47:17.777Z,57.80
2023-02-26T14:49:47.907Z,58.10
2023-02-26T14:52:34.286Z,57.70
2023-02-26T14:55:01.562Z,57.40
2023-02-26T14:57:36.867Z,57.10
2023-02-26T15:00:36.903Z,56.80
2023-02-26T15:03:13.550Z,56.70
2023-02-26T15:05:44.085Z,56.70
2023-02-26T15:08:18.387Z,57.00
2023-02-26T15:10:55.829Z,57.30
2023-02-26T15:13:59.708Z,57.40
2023-02-26T15:16:46.837Z,57.60
2023-02-26T15:19:59.517Z,57.90
2023-02-26T15:22:40.817Z,58.00
2023-02-26T15:25:24.178Z,58.00
2023-02-26T15:27:51.730Z,57.70
2023-02-26T15:30:19.799Z,57.80
2023-02-26T15:32:47.303Z,57.80
2023-02-26T15:35:21.092Z,57.60
2023-02-26T15:37:55.018Z,57.50
2023-02-26T15:40:22.486Z,57.50
2023-02-26T15:42:57.013Z,57.50
2023-02-26T15:45:39.892Z,57.50
2023-02-26T15:48:17.237Z,57.40
2023-02-26T15:50:48.059Z,57.30
2023-02-26T15:53:28.355Z,57.00
2023-02-26T15:55:59.428Z,56.80
2023-02-26T15:58:48.081Z,56.50
2023-02-26T16:01:18.968Z,56.30
2023-02-26T16:03:47.544Z,56.50
2023-02-26T16:06:30.072Z,56.50
2023-02-26T16:08:58.969Z,56.50
2023-02-26T16:11:35.078Z,56.60
2023-02-26T16:14:04.846Z,56.60
2023-02-26T16:16:43.976Z,56.80
2023-02-26T16:19:20.860Z,57.10
2023-02-26T16:21:49.644Z,57.50
2023-02-26T16:24:23.105Z,57.40
2023-02-26T16:26:56.201Z,57.40
2023-02-26T16:29:27.987Z,57.50
2023-02-26T16:32:01.443Z,57.90
2023-02-26T16:34:37.234Z,58.10
2023-02-26T16:37:32.158Z,58.10
2023-02-26T16:40:27.848Z,58.10
2023-02-26T16:43:27.177Z,58.40
2023-02-26T16:45:56.868Z,58.40
2023-02-26T16:48:27.885Z,58.50
2023-02-26T16:51:08.488Z,58.80
2023-02-26T16:53:43.967Z,59.10
2023-02-26T16:56:20.477Z,59.00
2023-02-26T16:58:54.413Z,59.00
2023-02-26T17:01:23.299Z,59.10
2023-02-26T17:03:58.783Z,59.30
2023-02-26T17:06:31.236Z,59.40
2023-02-26T17:09:01.198Z,59.40
2023-02-26T17:11:30.369Z,59.40
2023-02-26T17:14:02.942Z,60.30
2023-02-26T17:16:30.399Z,59.70
2023-02-26T17:18:57.937Z,59.80
2023-02-26T17:21:25.718Z,59.80
2023-02-26T17:23:53.508Z,59.90
2023-02-26T17:26:21.301Z,60.00
2023-02-26T17:28:48.617Z,60.20
2023-02-26T17:31:16.073Z,60.40
2023-02-26T17:33:44.897Z,60.30
2023-02-26T17:36:16.120Z,60.80
2023-02-26T17:38:47.035Z,61.20
2023-02-26T17:41:17.191Z,62.10
2023-02-26T17:43:44.493Z,61.50
2023-02-26T17:46:12.420Z,61.40
2023-02-26T17:48:40.128Z,61.40
2023-02-26T17:51:09.146Z,61.70
2023-02-26T17:53:40.878Z,61.30
2023-02-26T17:56:20.941Z,61.00
2023-02-26T17:58:49.700Z,60.70
2023-02-26T18:01:17.323Z,60.70
2023-02-26T18:03:45.012Z,60.50
2023-02-26T18:06:14.918Z,60.50
2023-02-26T18:08:43.096Z,60.50
2023-02-26T18:11:12.727Z,60.50
2023-02-26T18:13:40.222Z,60.40
2023-02-26T18:16:19.332Z,60.70
2023-02-26T18:18:47.211Z,60.80
2023-02-26T18:21:15.079Z,61.00
2023-02-26T18:23:43.176Z,61.10
2023-02-26T18:26:11.607Z,60.90
2023-02-26T18:28:38.948Z,61.00
2023-02-26T18:31:09.177Z,61.10
2023-02-26T18:33:38.670Z,61.30
2023-02-26T18:36:06.738Z,61.30
2023-02-26T18:38:34.475Z,61.70
2023-02-26T18:41:02.214Z,61.70
2023-02-26T18:43:29.917Z,61.70
2023-02-26T18:46:01.310Z,61.80
2023-02-26T18:48:29.232Z,61.80
2023-02-26T18:50:56.808Z,62.10
2023-02-26T18:53:24.614Z,62.10
2023-02-26T18:55:53.667Z,62.20
2023-02-26T18:58:21.733Z,62.20
2023-02-26T19:00:49.437Z,62.20
2023-02-26T19:03:17.417Z,62.50
2023-02-26T19:05:45.042Z,62.70
2023-02-26T19:08:12.654Z,62.90
2023-02-26T19:10:40.183Z,63.90
2023-02-26T19:13:07.661Z,63.20
2023-02-26T19:15:35.535Z,63.10
2023-02-26T19:18:03.186Z,63.20
2023-02-26T19:20:30.561Z,63.40
2023-02-26T19:22:58.129Z,63.30
2023-02-26T19:25:27.026Z,63.30
2023-02-26T19:27:55.533Z,63.30
2023-02-26T19:30:23.995Z,63.30
2023-02-26T19:32:53.122Z,63.20
2023-02-26T19:35:21.232Z,63.10
2023-02-26T19:37:49.032Z,63.10
2023-02-26T19:40:16.876Z,62.80
2023-02-26T19:42:44.616Z,62.70
2023-02-26T19:45:13.531Z,62.60
2023-02-26T19:47:41.170Z,62.60
2023-02-26T19:50:09.506Z,62.60
2023-02-26T19:52:37.349Z,62.40
2023-02-26T19:55:06.645Z,62.30
2023-02-26T19:57:34.189Z,62.50
2023-02-26T20:00:03.186Z,62.60
2023-02-26T20:02:39.578Z,62.60
2023-02-26T20:05:07.911Z,62.70
2023-02-26T20:07:35.313Z,62.70
2023-02-26T20:10:02.911Z,62.60
2023-02-26T20:12:30.422Z,62.90
2023-02-26T20:14:57.781Z,63.00
2023-02-26T20:17:25.140Z,63.10
2023-02-26T20:19:52.606Z,63.20
2023-02-26T20:22:22.731Z,63.30
2023-02-26T20:24:52.217Z,63.30
2023-02-26T20:27:19.740Z,63.40
2023-02-26T20:29:47.281Z,63.50
2023-02-26T20:32:15.844Z,64.00
2023-02-26T20:34:43.497Z,64.20
2023-02-26T20:37:10.946Z,64.40
2023-02-26T20:39:38.209Z,64.30
2023-02-26T20:42:05.735Z,64.50
2023-02-26T20:44:33.191Z,64.50
2023-02-26T20:47:02.547Z,64.60
2023-02-26T20:49:31.017Z,64.90
2023-02-26T20:51:58.494Z,65.10
2023-02-26T20:54:25.933Z,65.10
2023-02-26T20:56:53.584Z,65.20
2023-02-26T20:59:20.975Z,65.20
2023-02-26T21:01:51.211Z,65.20
2023-02-26T21:04:19.621Z,65.10
2023-02-26T21:06:47.200Z,65.00
2023-02-26T21:09:14.641Z,65.00
2023-02-26T21:11:42.097Z,65.10
2023-02-26T21:14:10.401Z,65.10
2023-02-26T21:16:40.670Z,65.30
2023-02-26T21:19:08.123Z,65.40
2023-02-26T21:21:35.392Z,65.60
2023-02-26T21:24:02.712Z,65.80
2023-02-26T21:26:30.022Z,65.90
2023-02-26T21:28:57.338Z,66.10
2023-02-26T21:31:24.839Z,66.30
2023-02-26T21:33:52.289Z,66.40
2023-02-26T21:36:21.306Z,66.80
2023-02-26T21:38:49.416Z,66.70
2023-02-26T21:41:16.898Z,66.60
2023-02-26T21:43:44.246Z,66.60
2023-02-26T21:46:11.665Z,66.70
2023-02-26T21:48:39.111Z,67.60
2023-02-26T21:51:06.686Z,67.10
2023-02-26T21:53:34.230Z,66.90
2023-02-26T21:56:01.651Z,66.90
2023-02-26T21:58:29.179Z,67.00
2023-02-26T22:00:59.283Z,67.10
2023-02-26T22:03:27.131Z,67.50
2023-02-26T22:05:54.468Z,67.60
2023-02-26T22:08:21.933Z,67.60
2023-02-26T22:10:49.329Z,67.70
2023-02-26T22:13:16.847Z,67.60
2023-02-26T22:15:44.265Z,67.80
2023-02-26T22:18:11.728Z,67.90
2023-02-26T22:20:39.230Z,68.00
2023-02-26T22:23:06.665Z,68.00
2023-02-26T22:25:34.341Z,68.00
2023-02-26T22:28:01.858Z,67.90
2023-02-26T22:30:29.289Z,67.90
2023-02-26T22:32:56.789Z,67.80
2023-02-26T22:35:24.162Z,68.10
2023-02-26T22:37:51.565Z,68.30
2023-02-26T22:40:19.005Z,68.30
2023-02-26T22:42:46.478Z,68.30
2023-02-26T22:45:17.118Z,68.30
2023-02-26T22:47:46.090Z,68.30
2023-02-26T22:50:14.541Z,68.20
2023-02-26T22:52:42.394Z,68.10
2023-02-26T22:55:11.149Z,68.00
2023-02-26T22:57:38.530Z,67.80
2023-02-26T23:00:11.342Z,67.80
2023-02-26T23:02:42.002Z,67.70
2023-02-26T23:05:09.795Z,67.60
2023-02-26T23:07:38.889Z,67.60
2023-02-26T23:10:08.838Z,67.50
2023-02-26T23:12:36.435Z,67.60
2023-02-26T23:15:04.384Z,67.50
2023-02-26T23:17:31.958Z,67.50
2023-02-26T23:19:59.261Z,67.60
2023-02-26T23:22:26.664Z,67.60
2023-02-26T23:24:54.429Z,67.90
2023-02-26T23:27:22.385Z,68.00
2023-02-26T23:29:49.635Z,68.20
2023-02-26T23:32:17.049Z,68.30
2023-02-26T23:34:44.418Z,68.30
2023-02-26T23:37:11.939Z,68.20
2023-02-26T23:39:39.192Z,68.20
2023-02-26T23:42:06.736Z,68.10
2023-02-26T23:44:33.963Z,67.90
2023-02-26T23:47:01.236Z,68.00
2023-02-26T23:49:28.412Z,68.10
2023-02-26T23:51:55.763Z,68.10
2023-02-26T23:54:23.004Z,68.10
2023-02-26T23:56:50.199Z,68.10
2023-02-26T23:59:18.328Z,68.70
